Time;durP1;ratioP1;P1;durP2;ratioP2;P2;SDS_P1;SDS_P2;PMS_P1;PMS_P2;Temp;Humidity;BMP_temperature;BMP_pressure;BME280_temperature;BME280_humidity;BME280_pressure;Samples;Min_cycle;Max_cycle;Signal;HPM_P1;HPM_P2
2024/04/17 00:02:21;;;;;;;;;;;;;;;-144.99;97.79;52472.56;5411033;26;20007;-77
2024/04/17 00:04:47;;;;;;;;;;;;;;;-144.99;97.83;52480.72;5410188;26;20364;-76
2024/04/17 00:07:15;;;;;;;;;;;;;;;-144.99;97.89;52509.25;5434526;26;19929;-78
2024/04/17 00:09:41;;;;;;;;;;;;;;;-144.99;97.73;52448.09;5428454;26;19928;-77
2024/04/17 00:12:10;;;;;;;;;;;;;;;-144.99;97.75;52525.56;5407140;26;20305;-77
2024/04/17 00:14:36;;;;;;;;;;;;;;;-144.99;97.58;52472.56;5405042;26;19936;-77
2024/04/17 00:17:04;;;;;;;;;;;;;;;-144.99;97.99;52476.63;5405965;26;20314;-77
2024/04/17 00:19:33;;;;;;;;;;;;;;;-144.99;98.21;52501.09;5397545;26;19936;-76
2024/04/17 00:22:01;;;;;;;;;;;;;;;-144.99;98.00;52462.34;5391172;26;20037;-76
2024/04/17 00:24:27;;;;;;;;;;;;;;;-144.99;97.86;52464.41;5404849;26;19929;-75
2024/04/17 00:26:55;;;;;;;;;;;;;;;-144.99;97.89;52505.16;5387238;26;20598;-75
2024/04/17 00:29:21;;;;;;;;;;;;;;;-144.99;97.83;52474.59;5391130;26;20329;-77
2024/04/17 00:31:50;;;;;;;;;;;;;;;-144.99;97.70;52511.28;5409184;26;19940;-79
2024/04/17 00:34:16;;;;;;;;;;;;;;;-144.99;97.43;52476.63;5411222;26;19936;-77
2024/04/17 00:36:47;;;;;;;;;;;;;;;-144.99;97.49;52511.28;5399743;26;19929;-78
2024/04/17 00:39:12;;;;;;;;;;;;;;;-144.99;97.67;52484.78;5398958;26;19929;-78
2024/04/17 00:41:41;;;;;;;;;;;;;;;-144.99;97.76;52460.31;5400207;26;20384;-79
2024/04/17 00:44:07;;;;;;;;;;;;;;;-144.99;97.84;52480.72;5408539;26;20259;-78
2024/04/17 00:46:37;;;;;;;;;;;;;;;-144.99;97.86;52482.75;5399595;26;20678;-78
2024/04/17 00:49:03;;;;;;;;;;;;;;;-144.99;97.78;52509.25;5408237;26;19937;-78
2024/04/17 00:51:32;;;;;;;;;;;;;;;-144.99;97.83;52488.84;5409045;26;19933;-78
2024/04/17 00:54:01;;;;;;;;;;;;;;;-144.99;97.93;52478.66;5400274;26;19929;-77
2024/04/17 00:56:29;;;;;;;;;;;;;;;-144.99;98.05;52468.47;5385318;26;19936;-76
2024/04/17 00:58:55;;;;;;;;;;;;;;;-144.99;97.90;52494.97;5402265;26;19936;-77
2024/04/17 01:01:24;;;;;;;;;;;;;;;-144.99;97.96;52468.47;5391646;26;19933;-77
2024/04/17 01:03:50;;;;;;;;;;;;;;;-144.99;98.00;52466.44;5395082;26;20320;-77
2024/04/17 01:06:19;;;;;;;;;;;;;;;-144.99;97.95;52468.47;5398051;26;19933;-77
2024/04/17 01:08:44;;;;;;;;;;;;;;;-144.99;98.05;52472.56;5408322;26;19929;-78
2024/04/17 01:11:15;;;;;;;;;;;;;;;-144.99;98.11;52497.00;5408781;26;19953;-77
2024/04/17 01:13:41;;;;;;;;;;;;;;;-144.99;98.16;52484.78;5408758;26;20329;-78
2024/04/17 01:16:10;;;;;;;;;;;;;;;-144.99;98.38;52488.84;5398686;26;19965;-77
2024/04/17 01:18:36;;;;;;;;;;;;;;;-144.99;98.51;52484.78;5403410;26;20049;-75
2024/04/17 01:21:05;;;;;;;;;;;;;;;-144.99;98.46;52480.72;5399420;26;19940;-77
2024/04/17 01:23:31;;;;;;;;;;;;;;;-144.99;98.52;52476.63;5404312;26;19930;-77
2024/04/17 01:26:02;;;;;;;;;;;;;;;-144.99;98.69;52444.03;5407241;26;20375;-78
2024/04/17 01:28:28;;;;;;;;;;;;;;;-144.99;98.61;52476.63;5393624;26;19929;-77
2024/04/17 01:30:57;;;;;;;;;;;;;;;-144.99;98.42;52490.91;5393673;26;20006;-77
2024/04/17 01:33:23;;;;;;;;;;;;;;;-144.99;98.33;52497.00;5394666;26;19947;-78
2024/04/17 01:35:51;;;;;;;;;;;;;;;-144.99;98.42;52492.94;5395185;26;20377;-75
2024/04/17 01:38:17;;;;;;;;;;;;;;;-144.99;98.40;52468.47;5407649;26;20033;-77
2024/04/17 01:40:46;;;;;;;;;;;;;;;-144.99;98.32;52460.31;5386219;26;20008;-77
2024/04/17 01:43:14;;;;;;;;;;;;;;;-144.99;98.42;52505.16;5406749;26;19929;-77
2024/04/17 01:45:46;;;;;;;;;;;;;;;-144.99;98.54;52484.78;5408068;26;20047;-75
2024/04/17 01:48:12;;;;;;;;;;;;;;;-144.99;98.47;52501.09;5395721;26;19928;-77
2024/04/17 01:50:40;;;;;;;;;;;;;;;-144.99;98.59;52468.47;5403382;26;19936;-76
2024/04/17 01:53:06;;;;;;;;;;;;;;;-144.99;98.49;52507.19;5405919;26;20425;-77
2024/04/17 01:55:35;;;;;;;;;;;;;;;-144.99;98.44;52492.94;5404907;26;20373;-77
2024/04/17 01:58:00;;;;;;;;;;;;;;;-144.99;98.49;52517.41;5422720;26;19953;-74
2024/04/17 02:00:33;;;;;;;;;;;;;;;-144.99;98.71;52492.94;5427051;26;19929;-78
2024/04/17 02:02:59;;;;;;;;;;;;;;;-144.99;98.79;52501.09;5407769;26;19928;-78
2024/04/17 02:05:27;;;;;;;;;;;;;;;-144.99;98.82;52488.84;5408380;26;20371;-78
2024/04/17 02:07:53;;;;;;;;;;;;;;;-144.99;98.59;52562.25;5408398;26;19929;-78
2024/04/17 02:10:22;;;;;;;;;;;;;;;-144.99;98.58;52480.72;5397091;26;20278;-78
2024/04/17 02:12:47;;;;;;;;;;;;;;;-144.99;98.59;52529.63;5396472;26;19930;-78
2024/04/17 02:15:16;;;;;;;;;;;;;;;-144.99;98.47;52456.25;5400445;26;19941;-77
2024/04/17 02:17:44;;;;;;;;;;;;;;;-144.99;98.64;52521.47;5408981;26;19929;-77
2024/04/17 02:20:13;;;;;;;;;;;;;;;-144.99;98.46;52507.19;5398991;26;19933;-77
2024/04/17 02:22:39;;;;;;;;;;;;;;;-144.99;98.52;52497.00;5401792;26;19972;-77
2024/04/17 02:25:07;;;;;;;;;;;;;;;-144.99;98.56;52476.63;5401406;26;19961;-78
2024/04/17 02:27:33;;;;;;;;;;;;;;;-144.99;98.46;52501.09;5409294;26;19949;-77
2024/04/17 02:30:02;;;;;;;;;;;;;;;-144.99;98.67;52523.50;5400566;26;20283;-76
2024/04/17 02:32:28;;;;;;;;;;;;;;;-144.99;98.71;52501.09;5397149;26;19929;-77
2024/04/17 02:34:59;;;;;;;;;;;;;;;-144.99;98.75;52509.25;5401551;26;19935;-76
2024/04/17 02:37:25;;;;;;;;;;;;;;;-144.99;98.67;52497.00;5398939;26;19936;-77
2024/04/17 02:39:53;;;;;;;;;;;;;;;-144.99;98.75;52529.63;5394862;26;20439;-77
2024/04/17 02:42:19;;;;;;;;;;;;;;;-144.99;98.79;52499.06;5389754;26;19936;-77
2024/04/17 02:44:48;;;;;;;;;;;;;;;-144.99;98.54;52505.16;5409941;26;19940;-80
2024/04/17 02:47:13;;;;;;;;;;;;;;;-144.99;98.54;52533.69;5428868;26;19945;-81
2024/04/17 02:49:42;;;;;;;;;;;;;;;-144.99;98.66;52513.31;5417274;26;19959;-80
2024/04/17 02:52:10;;;;;;;;;;;;;;;-144.99;98.74;52537.78;5395821;26;19930;-80
2024/04/17 02:54:39;;;;;;;;;;;;;;;-144.99;98.62;52499.06;5401444;26;19929;-79
2024/04/17 02:57:05;;;;;;;;;;;;;;;-144.99;98.61;52523.50;5413438;26;19929;-78
2024/04/17 02:59:33;;;;;;;;;;;;;;;-144.99;98.90;52480.72;5407269;26;20369;-78
2024/04/17 03:01:59;;;;;;;;;;;;;;;-144.99;98.90;52488.84;5408285;26;20278;-78
2024/04/17 03:04:28;;;;;;;;;;;;;;;-144.99;98.59;52480.72;5389409;26;19961;-79
2024/04/17 03:06:53;;;;;;;;;;;;;;;-144.99;98.75;52539.81;5395020;26;20292;-78
2024/04/17 03:09:25;;;;;;;;;;;;;;;-144.99;99.04;52464.41;5408813;26;19961;-79
2024/04/17 03:11:50;;;;;;;;;;;;;;;-144.99;98.94;52501.09;5403849;26;19931;-79
2024/04/17 03:14:19;;;;;;;;;;;;;;;-144.99;99.01;52525.56;5406849;26;20023;-79
2024/04/17 03:16:47;;;;;;;;;;;;;;;-144.99;98.72;52492.94;5407224;26;19928;-79
2024/04/17 03:19:15;;;;;;;;;;;;;;;-144.99;98.70;52525.56;5406567;26;19929;-76
2024/04/17 03:21:41;;;;;;;;;;;;;;;-144.99;98.87;52488.84;5395891;26;20289;-77
2024/04/17 03:24:09;;;;;;;;;;;;;;;-144.99;98.86;52501.09;5404972;26;19935;-76
2024/04/17 03:26:38;;;;;;;;;;;;;;;-144.99;98.57;52537.78;5412665;26;19928;-77
2024/04/17 03:29:06;;;;;;;;;;;;;;;-144.99;98.50;52505.16;5406999;26;19936;-76
2024/04/17 03:31:32;;;;;;;;;;;;;;;-144.99;98.72;52505.16;5412994;26;19929;-77
2024/04/17 03:34:01;;;;;;;;;;;;;;;-144.99;99.01;52545.94;5394863;26;19963;-77
2024/04/17 03:36:26;;;;;;;;;;;;;;;-144.99;99.11;52529.63;5395125;26;20316;-76
2024/04/17 03:38:55;;;;;;;;;;;;;;;-144.99;98.96;52515.34;5419086;26;19929;-77
2024/04/17 03:41:23;;;;;;;;;;;;;;;-144.99;99.01;52501.09;5423034;26;20368;-74
2024/04/17 03:43:54;;;;;;;;;;;;;;;-144.99;99.00;52501.09;5401011;26;19929;-76
2024/04/17 03:46:23;;;;;;;;;;;;;;;-144.99;98.93;52537.78;5411567;26;21105;-77
2024/04/17 03:48:49;;;;;;;;;;;;;;;-144.99;99.20;52539.81;5394700;26;19929;-77
2024/04/17 03:51:17;;;;;;;;;;;;;;;-144.99;99.45;52488.84;5375538;26;19929;-77
2024/04/17 03:53:43;;;;;;;;;;;;;;;-144.99;100.00;52505.16;5397203;26;19929;-77
2024/04/17 03:56:12;;;;;;;;;;;;;;;-144.99;100.00;52511.28;5401727;26;20384;-76
2024/04/17 03:58:38;;;;;;;;;;;;;;;-144.99;100.00;52480.72;5429413;26;19921;-76
2024/04/17 04:01:09;;;;;;;;;;;;;;;-144.99;100.00;52529.63;5420461;26;19971;-76
2024/04/17 04:03:35;;;;;;;;;;;;;;;-144.99;100.00;52484.78;5414687;26;19929;-77
2024/04/17 04:06:03;;;;;;;;;;;;;;;-144.99;100.00;52499.06;5416978;26;19929;-77
2024/04/17 04:08:29;;;;;;;;;;;;;;;-144.99;100.00;52497.00;5402493;26;19936;-77
2024/04/17 04:10:57;;;;;;;;;;;;;;;-144.99;100.00;52505.16;5402448;26;19933;-74
2024/04/17 04:13:23;;;;;;;;;;;;;;;-144.99;100.00;52517.41;5398607;26;19929;-77
2024/04/17 04:15:54;;;;;;;;;;;;;;;-144.99;100.00;52505.16;5407813;26;19944;-77
2024/04/17 04:18:23;;;;;;;;;;;;;;;-144.99;100.00;52529.63;5404056;26;20399;-77
2024/04/17 04:20:51;;;;;;;;;;;;;;;-144.99;100.00;52497.00;5408768;26;19933;-77
2024/04/17 04:23:17;;;;;;;;;;;;;;;-144.99;100.00;52541.84;5401256;26;20001;-80
2024/04/17 04:25:46;;;;;;;;;;;;;;;-144.99;100.00;52480.72;5393891;26;19984;-79
2024/04/17 04:28:12;;;;;;;;;;;;;;;-144.99;100.00;52509.25;5414081;26;19936;-79
2024/04/17 04:30:41;;;;;;;;;;;;;;;-144.99;100.00;52501.09;5411208;26;20061;-81
2024/04/17 04:33:07;;;;;;;;;;;;;;;-144.99;99.83;52505.16;5431557;26;20009;-80
2024/04/17 04:35:38;;;;;;;;;;;;;;;-144.99;99.66;52476.63;5426795;26;19944;-79
2024/04/17 04:38:04;;;;;;;;;;;;;;;-144.99;99.55;52509.25;5414830;26;20345;-79
2024/04/17 04:40:32;;;;;;;;;;;;;;;-144.99;99.11;52492.94;5413768;26;19937;-79
2024/04/17 04:42:58;;;;;;;;;;;;;;;-144.99;98.82;52509.25;5381732;26;19929;-78
2024/04/17 04:45:27;;;;;;;;;;;;;;;-144.99;98.84;52490.91;5414710;26;19957;-77
2024/04/17 04:47:53;;;;;;;;;;;;;;;-144.99;98.55;52474.59;5410742;26;19929;-78
2024/04/17 04:50:22;;;;;;;;;;;;;;;-144.99;98.40;52488.84;5412109;26;20290;-79
2024/04/17 04:52:50;;;;;;;;;;;;;;;-144.99;98.11;52486.81;5398790;26;19929;-79
2024/04/17 04:55:19;;;;;;;;;;;;;;;-144.99;98.00;52497.00;5396918;26;19930;-79
2024/04/17 04:57:45;;;;;;;;;;;;;;;-144.99;97.98;52501.09;5413750;26;19929;-79
2024/04/17 05:00:14;;;;;;;;;;;;;;;-144.99;97.76;52484.78;5397979;26;19945;-79
2024/04/17 05:02:40;;;;;;;;;;;;;;;-144.99;97.49;52492.94;5402324;26;19936;-79
2024/04/17 05:05:09;;;;;;;;;;;;;;;-144.99;97.57;52464.41;5410333;26;19929;-79
2024/04/17 05:07:35;;;;;;;;;;;;;;;-144.99;97.31;52521.47;5400483;26;19929;-80
2024/04/17 05:10:06;;;;;;;;;;;;;;;-144.99;97.27;52509.25;5403073;26;19980;-79
2024/04/17 05:12:32;;;;;;;;;;;;;;;-144.99;97.17;52476.63;5401268;26;19929;-79
2024/04/17 05:15:00;;;;;;;;;;;;;;;-144.99;96.85;52492.94;5401410;26;20035;-78
2024/04/17 05:17:26;;;;;;;;;;;;;;;-144.99;96.83;52521.47;5402727;26;20225;-79
2024/04/17 05:19:55;;;;;;;;;;;;;;;-144.99;96.91;52460.31;5412666;26;20040;-79
2024/04/17 05:22:21;;;;;;;;;;;;;;;-144.99;96.35;52468.47;5413428;26;19948;-80
2024/04/17 05:24:49;;;;;;;;;;;;;;;-144.99;96.28;52478.66;5412803;26;20249;-80
2024/04/17 05:27:18;;;;;;;;;;;;;;;-144.99;96.07;52460.31;5405387;26;19929;-80
2024/04/17 05:29:46;;;;;;;;;;;;;;;-144.99;95.85;52460.31;5412369;26;19963;-80
2024/04/17 05:32:12;;;;;;;;;;;;;;;-144.99;95.43;52456.25;5413329;26;19929;-80
2024/04/17 05:34:40;;;;;;;;;;;;;;;-144.99;94.90;52480.72;5412748;26;19970;-78
2024/04/17 05:37:06;;;;;;;;;;;;;;;-144.99;94.74;52456.25;5410604;26;19936;-79
2024/04/17 05:39:35;;;;;;;;;;;;;;;-144.99;93.49;52492.94;5410054;26;19933;-77
2024/04/17 05:42:02;;;;;;;;;;;;;;;-144.99;93.66;52486.81;5415865;26;20020;-79
2024/04/17 05:44:33;;;;;;;;;;;;;;;-144.99;93.03;52497.00;5400374;26;19950;-79
2024/04/17 05:46:59;;;;;;;;;;;;;;;-144.99;92.31;52484.78;5414481;26;19936;-79
2024/04/17 05:49:28;;;;;;;;;;;;;;;-144.99;92.26;52464.41;5413828;26;20298;-78
2024/04/17 05:51:53;;;;;;;;;;;;;;;-144.99;91.88;52460.31;5400296;26;19957;-76
2024/04/17 05:54:22;;;;;;;;;;;;;;;-144.99;91.76;52476.63;5409935;26;19929;-76
2024/04/17 05:56:49;;;;;;;;;;;;;;;-144.99;91.70;52452.16;5408898;26;19929;-80
2024/04/17 05:59:17;;;;;;;;;;;;;;;-144.99;91.25;52488.84;5415281;26;20001;-79
2024/04/17 06:01:46;;;;;;;;;;;;;;;-144.99;91.27;52476.63;5411415;26;19929;-80
2024/04/17 06:04:14;;;;;;;;;;;;;;;-144.99;90.96;52492.94;5410722;26;20272;-78
2024/04/17 06:06:40;;;;;;;;;;;;;;;-144.99;90.65;52533.69;5412004;26;19929;-79
2024/04/17 06:09:09;;;;;;;;;;;;;;;-144.99;90.48;52488.84;5412247;26;19961;-79
2024/04/17 06:11:34;;;;;;;;;;;;;;;-144.99;91.03;52464.41;5400890;26;20031;-79
2024/04/17 06:14:03;;;;;;;;;;;;;;;-144.99;90.75;52480.72;5409915;26;20363;-79
2024/04/17 06:16:29;;;;;;;;;;;;;;;-144.99;90.70;52476.63;5410286;26;19940;-79
2024/04/17 06:19:00;;;;;;;;;;;;;;;-144.99;90.27;52439.94;5412131;26;19937;-82
2024/04/17 06:21:27;;;;;;;;;;;;;;;-144.99;89.90;52460.31;5397075;26;19945;-78
2024/04/17 06:23:55;;;;;;;;;;;;;;;-144.99;89.67;52472.56;5411078;26;20424;-79
2024/04/17 06:26:21;;;;;;;;;;;;;;;-144.99;89.61;52464.41;5410316;26;20273;-78
2024/04/17 06:28:50;;;;;;;;;;;;;;;-144.99;88.78;52468.47;5412610;26;20011;-78
2024/04/17 06:31:16;;;;;;;;;;;;;;;-144.99;88.13;52452.16;5403556;26;19930;-80
2024/04/17 06:33:44;;;;;;;;;;;;;;;-144.99;87.40;52419.56;5409122;26;19941;-80
2024/04/17 06:36:13;;;;;;;;;;;;;;;-144.99;87.26;52439.94;5397864;26;20049;-80
2024/04/17 06:38:41;;;;;;;;;;;;;;;-144.99;86.61;52427.72;5411853;26;20254;-80
2024/04/17 06:41:07;;;;;;;;;;;;;;;-144.99;85.23;52486.81;5398792;26;19930;-80
2024/04/17 06:43:37;;;;;;;;;;;;;;;-144.99;85.42;52419.56;5432856;26;19941;-82
2024/04/17 06:46:03;;;;;;;;;;;;;;;-144.99;85.36;52468.47;5424618;26;19921;-81
2024/04/17 06:48:31;;;;;;;;;;;;;;;-144.99;84.71;52437.91;5438715;26;19942;-83
2024/04/17 06:50:57;;;;;;;;;;;;;;;-144.99;84.12;52456.25;5427199;26;20365;-80
2024/04/17 06:53:28;;;;;;;;;;;;;;;-144.99;83.93;52429.75;5408344;26;19929;-80
2024/04/17 06:55:54;;;;;;;;;;;;;;;-144.99;83.63;52452.16;5410321;26;19929;-80
2024/04/17 06:58:23;;;;;;;;;;;;;;;-144.99;82.61;52464.41;5409206;26;20367;-81
2024/04/17 07:00:48;;;;;;;;;;;;;;;-144.99;81.21;52423.63;5418698;26;19937;-80
2024/04/17 07:03:17;;;;;;;;;;;;;;;-144.99;81.44;52444.03;5416838;26;19929;-81
2024/04/17 07:05:43;;;;;;;;;;;;;;;-144.99;81.25;52427.72;5418746;26;20254;-79
2024/04/17 07:08:11;;;;;;;;;;;;;;;-144.99;80.66;52413.44;5414471;26;20360;-81
2024/04/17 07:10:40;;;;;;;;;;;;;;;-144.99;80.53;52427.72;5408209;26;19929;-80
2024/04/17 07:13:08;;;;;;;;;;;;;;;-144.99;79.69;52431.78;5417210;26;19935;-81
2024/04/17 07:15:34;;;;;;;;;;;;;;;-144.99;79.16;52423.63;5418408;26;19936;-79
2024/04/17 07:18:02;;;;;;;;;;;;;;;-144.99;79.12;52427.72;5418395;26;19944;-80
2024/04/17 07:20:28;;;;;;;;;;;;;;;-144.99;77.68;52425.66;5404043;26;19929;-79
2024/04/17 07:22:57;;;;;;;;;;;;;;;-144.99;77.74;52423.63;5414148;26;19966;-79
2024/04/17 07:25:23;;;;;;;;;;;;;;;-144.99;77.17;52415.47;5413217;26;19944;-80
2024/04/17 07:27:54;;;;;;;;;;;;;;;-144.99;75.71;52431.78;5415045;26;19998;-79
2024/04/17 07:30:20;;;;;;;;;;;;;;;-144.99;74.48;52427.72;5416430;26;19929;-79
2024/04/17 07:32:48;;;;;;;;;;;;;;;-144.99;73.58;52415.47;5414699;26;19929;-79
2024/04/17 07:35:14;;;;;;;;;;;;;;;-144.99;74.22;52444.03;5415727;26;19929;-80
2024/04/17 07:37:43;;;;;;;;;;;;;;;-144.99;73.86;52403.25;5412886;26;19940;-81
2024/04/17 07:40:09;;;;;;;;;;;;;;;-144.99;73.14;52423.63;5414559;26;19929;-79
2024/04/17 07:42:37;;;;;;;;;;;;;;;-144.99;73.07;52423.63;5413383;26;19937;-79
2024/04/17 07:45:06;;;;;;;;;;;;;;;-144.99;72.13;52376.75;5414011;26;19929;-79
2024/04/17 07:47:34;;;;;;;;;;;;;;;-144.99;71.40;52439.94;5408886;26;20056;-80
2024/04/17 07:50:00;;;;;;;;;;;;;;;-144.99;69.89;52427.72;5414695;26;19929;-80
2024/04/17 07:52:29;;;;;;;;;;;;;;;-144.99;69.18;52427.72;5403533;26;19935;-80
2024/04/17 07:54:55;;;;;;;;;;;;;;;-144.99;68.98;52395.09;5417465;26;19929;-79
2024/04/17 07:57:23;;;;;;;;;;;;;;;-144.99;68.15;52431.78;5415692;26;19929;-79
2024/04/17 07:59:49;;;;;;;;;;;;;;;-144.99;68.33;52407.31;5413248;26;19973;-80
2024/04/17 08:02:20;;;;;;;;;;;;;;;-144.99;67.41;52415.47;5411167;26;19929;-79
2024/04/17 08:04:46;;;;;;;;;;;;;;;-144.99;67.22;52427.72;5412736;26;19929;-79
2024/04/17 08:07:15;;;;;;;;;;;;;;;-144.99;66.60;52417.53;5401126;26;20224;-80
2024/04/17 08:09:41;;;;;;;;;;;;;;;-144.99;66.83;52403.25;5410829;26;19929;-79
2024/04/17 08:12:10;;;;;;;;;;;;;;;-144.99;65.53;52419.56;5414224;26;19965;-79
2024/04/17 08:14:36;;;;;;;;;;;;;;;-144.99;65.27;52384.91;5409009;26;20365;-79
2024/04/17 08:17:04;;;;;;;;;;;;;;;-144.99;64.16;52391.03;5409363;26;19944;-80
2024/04/17 08:19:36;;;;;;;;;;;;;;;-144.99;62.11;52399.19;5414511;26;19929;-79
2024/04/17 08:22:04;;;;;;;;;;;;;;;-144.99;62.60;52427.72;5415059;26;19929;-77
2024/04/17 08:24:30;;;;;;;;;;;;;;;-144.99;62.87;52362.50;5414401;26;19929;-78
2024/04/17 08:26:59;;;;;;;;;;;;;;;-144.99;63.28;52407.31;5413504;26;20387;-79
2024/04/17 08:29:25;;;;;;;;;;;;;;;-144.99;62.42;52425.66;5395555;26;20275;-80
2024/04/17 08:31:53;;;;;;;;;;;;;;;-144.99;62.21;52362.50;5414003;26;19937;-79
2024/04/17 08:34:19;;;;;;;;;;;;;;;-144.99;62.16;52358.41;5414668;26;19936;-80
2024/04/17 08:36:50;;;;;;;;;;;;;;;-144.99;61.46;52403.25;5414691;26;19937;-79
2024/04/17 08:39:16;;;;;;;;;;;;;;;-144.99;60.40;52386.94;5411569;26;19929;-79
2024/04/17 08:41:50;;;;;;;;;;;;;;;-144.99;59.72;52374.72;5415267;26;19936;-80
2024/04/17 08:44:17;;;;;;;;;;;;;;;-144.99;60.02;52378.78;5414138;26;19936;-80
2024/04/17 08:46:46;;;;;;;;;;;;;;;-144.99;59.13;52358.41;5408934;26;19936;-79
2024/04/17 08:49:13;;;;;;;;;;;;;;;-144.99;58.50;52338.03;5415020;26;19929;-80
2024/04/17 08:51:42;;;;;;;;;;;;;;;-144.99;58.54;52374.72;5413697;26;20002;-80
2024/04/17 08:54:11;;;;;;;;;;;;;;;-144.99;58.17;52370.63;5399446;26;20356;-80
2024/04/17 08:56:40;;;;;;;;;;;;;;;-144.99;56.47;52362.50;5411893;26;19929;-81
2024/04/17 08:59:07;;;;;;;;;;;;;;;-144.99;55.99;52338.03;5416083;26;19929;-82
2024/04/17 09:01:37;;;;;;;;;;;;;;;-144.99;55.80;52358.41;5420366;26;19936;-81
2024/04/17 09:04:03;;;;;;;;;;;;;;;-144.99;55.64;52354.34;5422767;26;19936;-79
2024/04/17 09:06:32;;;;;;;;;;;;;;;-144.99;55.96;52325.81;5410557;26;19929;-78
2024/04/17 09:08:59;;;;;;;;;;;;;;;-144.99;54.75;52327.84;5409838;26;19929;-80
2024/04/17 09:11:32;;;;;;;;;;;;;;;-144.99;55.37;52358.41;5414769;26;20333;-80
2024/04/17 09:13:58;;;;;;;;;;;;;;;-144.99;55.18;52340.06;5390745;26;20024;-79
2024/04/17 09:16:26;;;;;;;;;;;;;;;-144.99;54.25;52354.34;5425643;26;19936;-81
2024/04/17 09:18:52;;;;;;;;;;;;;;;-144.99;53.14;52329.88;5434085;26;19928;-83
2024/04/17 09:21:20;;;;;;;;;;;;;;;-144.99;52.44;52354.34;5428969;26;19921;-79
2024/04/17 09:23:46;;;;;;;;;;;;;;;-144.99;52.89;52360.44;5435160;26;19929;-83
2024/04/17 09:26:16;;;;;;;;;;;;;;;-144.99;52.15;52395.09;5421703;26;19932;-80
2024/04/17 09:28:44;;;;;;;;;;;;;;;-144.99;52.92;52403.25;5415956;26;19940;-80
2024/04/17 09:31:13;;;;;;;;;;;;;;;-144.99;53.42;52386.94;5414920;26;19929;-80
2024/04/17 09:33:42;;;;;;;;;;;;;;;-144.99;54.70;52401.22;5412819;26;20268;-80
2024/04/17 09:36:11;;;;;;;;;;;;;;;-144.99;55.19;52415.47;5415918;26;19929;-79
2024/04/17 09:38:37;;;;;;;;;;;;;;;-144.99;54.67;52395.09;5416410;26;20035;-80
2024/04/17 09:41:05;;;;;;;;;;;;;;;-144.99;54.32;52374.72;5413032;26;19936;-78
2024/04/17 09:43:31;;;;;;;;;;;;;;;-144.99;54.23;52342.09;5413421;26;20255;-80
2024/04/17 09:46:03;;;;;;;;;;;;;;;-144.99;53.05;52399.19;5410458;26;19940;-80
2024/04/17 09:48:29;;;;;;;;;;;;;;;-144.99;51.26;52342.09;5405181;26;19929;-80
2024/04/17 09:51:02;;;;;;;;;;;;;;;-144.99;49.68;52321.72;5418036;26;19929;-80
2024/04/17 09:53:30;;;;;;;;;;;;;;;-144.99;49.18;52338.03;5416879;26;20173;-79
2024/04/17 09:55:59;;;;;;;;;;;;;;;-144.99;48.38;52301.34;5414930;26;20028;-81
2024/04/17 09:58:32;;;;;;;;;;;;;;;-144.99;46.88;52287.06;5417502;26;20277;-80
2024/04/17 10:01:03;;;;;;;;;;;;;;;-144.99;47.06;52295.22;5422784;26;20361;-79
2024/04/17 10:03:30;;;;;;;;;;;;;;;-144.99;47.72;52266.69;5421697;26;19929;-79
2024/04/17 10:06:00;;;;;;;;;;;;;;;-144.99;47.48;52293.19;5423122;26;19941;-79
2024/04/17 10:08:29;;;;;;;;;;;;;;;-144.99;47.66;52293.19;5418997;26;19932;-81
2024/04/17 10:10:57;;;;;;;;;;;;;;;-144.99;47.74;52262.63;5404120;26;19940;-80
2024/04/17 10:13:23;;;;;;;;;;;;;;;-144.99;46.88;52266.69;5412778;26;19956;-80
2024/04/17 10:15:52;;;;;;;;;;;;;;;-144.99;47.28;52293.19;5414907;26;19936;-81
2024/04/17 10:18:21;;;;;;;;;;;;;;;-144.99;46.85;52287.06;5415247;26;19954;-81
2024/04/17 10:20:50;;;;;;;;;;;;;;;-144.99;46.77;52232.03;5417015;26;19937;-81
2024/04/17 10:23:17;;;;;;;;;;;;;;;-144.99;46.52;52236.13;5416146;26;20324;-81
2024/04/17 10:25:48;;;;;;;;;;;;;;;-144.99;46.39;52252.44;5411568;26;19937;-81
2024/04/17 10:28:15;;;;;;;;;;;;;;;-144.99;46.74;52270.78;5412646;26;20385;-81
2024/04/17 10:30:45;;;;;;;;;;;;;;;-144.99;46.32;52358.41;5415434;26;19929;-81
2024/04/17 10:33:25;;;;;;;;;;;;;;;-144.99;45.95;52346.19;5414502;26;19929;-81
2024/04/17 10:35:54;;;;;;;;;;;;;;;-144.99;46.83;52374.72;5415928;26;19953;-80
2024/04/17 10:38:22;;;;;;;;;;;;;;;-144.99;47.46;52397.13;5416355;26;19929;-82
2024/04/17 10:40:50;;;;;;;;;;;;;;;-144.99;48.00;52362.50;5410821;26;19960;-82
2024/04/17 10:43:17;;;;;;;;;;;;;;;-144.99;48.64;52256.50;5414415;26;19933;-84
2024/04/17 10:45:47;;;;;;;;;;;;;;;-144.99;48.73;52264.66;5415801;26;20269;-82
2024/04/17 10:48:16;;;;;;;;;;;;;;;-144.99;48.10;52285.03;5413536;26;19999;-82
2024/04/17 10:50:47;;;;;;;;;;;;;;;-144.99;47.80;52232.03;5404302;26;19929;-81
2024/04/17 10:53:14;;;;;;;;;;;;;;;-144.99;47.55;52205.53;5400943;26;19929;-81
2024/04/17 10:55:42;;;;;;;;;;;;;;;-144.99;46.54;52174.97;5404064;26;19957;-81
2024/04/17 10:58:10;;;;;;;;;;;;;;;-144.99;45.60;52191.28;5405790;26;19936;-81
2024/04/17 11:00:38;;;;;;;;;;;;;;;-144.99;45.37;52146.44;5403857;26;19940;-81
2024/04/17 11:03:04;;;;;;;;;;;;;;;-144.99;45.65;52148.47;5415548;26;19936;-81
2024/04/17 11:05:33;;;;;;;;;;;;;;;-144.99;43.84;52199.44;5415086;26;19962;-82
2024/04/17 11:08:02;;;;;;;;;;;;;;;-144.99;44.50;52140.31;5416726;26;20164;-80
2024/04/17 11:10:30;;;;;;;;;;;;;;;-144.99;44.65;52146.44;5400426;26;19941;-81
2024/04/17 11:12:56;;;;;;;;;;;;;;;-144.99;44.12;52158.66;5413883;26;19928;-81
2024/04/17 11:15:25;;;;;;;;;;;;;;;-144.99;43.64;52138.28;5402053;26;19968;-81
2024/04/17 11:17:51;;;;;;;;;;;;;;;-144.99;46.86;52240.19;5413924;26;19929;-82
2024/04/17 11:20:19;;;;;;;;;;;;;;;-144.99;48.47;52191.28;5413918;26;19940;-81
2024/04/17 11:22:46;;;;;;;;;;;;;;;-144.99;48.85;52170.91;5409045;26;19940;-81
2024/04/17 11:25:19;;;;;;;;;;;;;;;-144.99;48.79;52264.66;5411943;26;20348;-81
2024/04/17 11:27:46;;;;;;;;;;;;;;;-144.99;49.97;52313.56;5414887;26;19929;-78
2024/04/17 11:30:20;;;;;;;;;;;;;;;-144.99;51.03;52378.78;5417016;26;19929;-81
2024/04/17 11:32:46;;;;;;;;;;;;;;;-144.99;52.10;52333.94;5406857;26;20009;-79
2024/04/17 11:35:15;;;;;;;;;;;;;;;-144.99;52.45;52374.72;5417119;26;20250;-80
2024/04/17 11:37:41;;;;;;;;;;;;;;;-144.99;53.17;52386.94;5419360;26;19929;-81
2024/04/17 11:40:10;;;;;;;;;;;;;;;-144.99;54.28;52356.38;5419767;26;20002;-80
2024/04/17 11:42:40;;;;;;;;;;;;;;;-144.99;54.52;52415.47;5418642;26;19964;-81
2024/04/17 11:45:09;;;;;;;;;;;;;;;-144.99;53.46;52342.09;5409510;26;19933;-80
2024/04/17 11:47:36;;;;;;;;;;;;;;;-144.99;53.37;52338.03;5404550;26;19933;-82
2024/04/17 11:50:04;;;;;;;;;;;;;;;-144.99;52.46;52250.38;5404021;26;19943;-80
2024/04/17 11:52:32;;;;;;;;;;;;;;;-144.99;52.24;52264.66;5403146;26;19936;-81
2024/04/17 11:55:00;;;;;;;;;;;;;;;-144.99;51.74;52223.88;5418628;26;19933;-80
2024/04/17 11:57:28;;;;;;;;;;;;;;;-144.99;51.15;52283.00;5422418;26;19975;-81
2024/04/17 11:59:59;;;;;;;;;;;;;;;-144.99;50.05;52227.97;5421584;26;19935;-81
2024/04/17 12:02:25;;;;;;;;;;;;;;;-144.99;49.85;52195.34;5417927;26;19929;-82
2024/04/17 12:04:53;;;;;;;;;;;;;;;-144.99;49.59;52183.13;5416449;26;19935;-81
2024/04/17 12:07:19;;;;;;;;;;;;;;;-144.99;49.73;52174.97;5417239;26;19936;-81
2024/04/17 12:09:49;;;;;;;;;;;;;;;-144.99;48.61;52205.53;5416755;26;19941;-81
2024/04/17 12:12:15;;;;;;;;;;;;;;;-144.99;49.41;52323.75;5421679;26;19936;-83
2024/04/17 12:14:43;;;;;;;;;;;;;;;-144.99;49.15;52209.63;5434050;26;19925;-80
2024/04/17 12:17:12;;;;;;;;;;;;;;;-144.99;49.51;52256.50;5436630;26;19929;-85
2024/04/17 12:19:40;;;;;;;;;;;;;;;-144.99;48.35;52187.19;5424292;26;19929;-79
2024/04/17 12:22:06;;;;;;;;;;;;;;;-144.99;48.76;52154.59;5417488;26;19956;-81
2024/04/17 12:27:15;;;;;;;;;;;;;;;-144.99;50.05;52248.34;5411786;26;20229;-78
2024/04/17 12:29:44;;;;;;;;;;;;;;;-144.99;50.76;52268.72;5402733;26;19932;-81
2024/04/17 12:32:15;;;;;;;;;;;;;;;-144.99;51.80;52272.81;5412534;26;19936;-80